Syosyun — JD2406 — position and weather

sailwx.info

Track history (hours):
 
Tides and Currents Weather Stations Pressure Air Temp Water Temp Dewpoint Dewpoint Depression Visibility Wind Speed Wind Dir Waves Ship Positions

Syosyun

Last reported at 2014-Sep-19 05:33 UTC. Time now 2014-Sep-20 13:56 UTC.
Position N 34°36' E 134°55'.

Length 74 m; draft 4.2 m.

Type: Cargo ship. MMSI: 431000201.

Date/timePositionNaut miles runAvg speedWind from/ knotsBaromVisibWave heightAir tempDewpointWater temp
2014-Sep-19 05:33N 34°36' E 134°55'10 9.8
2014-Sep-19 04:32N 34°36' E 135°07'1010.7
2014-Sep-19 03:33N 34°38' E 135°19'7 6.8
2014-Sep-19 02:32N 34°39' E 135°28'0 0.0
2014-Sep-19 00:08N 34°39' E 135°28'0 0.0
2014-Sep-18 23:32N 34°39' E 135°28'0 0.0
2014-Sep-18 22:32N 34°39' E 135°28'0 0.0
2014-Sep-18 21:32N 34°39' E 135°28'0 0.0
2014-Sep-18 20:26N 34°39' E 135°28'0 0.0
2014-Sep-18 19:32N 34°39' E 135°28'0 0.0
2014-Sep-18 18:32N 34°39' E 135°28'0 0.0
2014-Sep-18 17:32N 34°39' E 135°28'0 0.0
2014-Sep-18 16:32N 34°39' E 135°28'0 0.0
2014-Sep-18 15:32N 34°39' E 135°28'0 0.0
2014-Sep-18 14:32N 34°39' E 135°28'0 0.0
2014-Sep-18 13:26N 34°39' E 135°28'0 0.0
2014-Sep-18 12:32N 34°39' E 135°28'0 0.0
2014-Sep-18 11:32N 34°39' E 135°28'0 0.0
2014-Sep-18 10:26N 34°39' E 135°28'0 0.0
2014-Sep-18 09:32N 34°39' E 135°28'0 0.0
2014-Sep-18 08:32N 34°39' E 135°28'0 0.0
2014-Sep-18 07:32N 34°39' E 135°28'0 0.0
2014-Sep-18 06:32N 34°39' E 135°28'4 4.4
2014-Sep-18 05:33N 34°38' E 135°23'7 4.7
2014-Sep-18 04:07N 34°31' E 135°24'0 0.0
2014-Sep-18 00:12N 34°31' E 135°24'4 6.7
2014-Sep-17 23:33N 34°31' E 135°19'1010.0
2014-Sep-17 22:33N 34°24' E 135°09'9 9.3
2014-Sep-17 21:32N 34°16' E 135°03'9 9.7
2014-Sep-17 20:33N 34°07' E 135°03'229 8.3
2014-Sep-16 17:06N 35°04' E 139°32'810.3
2014-Sep-16 16:20N 35°07' E 139°41'810.0
2014-Sep-16 15:34N 35°13' E 139°46'1010.4
2014-Sep-16 14:33N 35°23' E 139°42'8 7.8
2014-Sep-16 13:33N 35°22' E 139°52'2 1.6
2014-Sep-16 12:33N 35°22' E 139°54'0 0.0
2014-Sep-16 11:26N 35°22' E 139°54'0 0.0
2014-Sep-16 10:32N 35°22' E 139°54'0 0.0
2014-Sep-16 09:32N 35°22' E 139°54'0 0.0
2014-Sep-16 08:32N 35°22' E 139°54'0 0.0
2014-Sep-16 07:29N 35°22' E 139°54'0 0.1
2014-Sep-16 06:29N 35°22' E 139°54'0 0.0
2014-Sep-16 05:32N 35°22' E 139°54'0 0.0
2014-Sep-16 04:29N 35°22' E 139°54'0 0.0
2014-Sep-16 03:26N 35°22' E 139°54'0 0.0
2014-Sep-16 02:32N 35°22' E 139°54'0 0.0
2014-Sep-16 01:29N 35°22' E 139°54'0 0.0
2014-Sep-16 00:32N 35°22' E 139°54'0 0.0
2014-Sep-15 23:29N 35°22' E 139°54'0 0.0
2014-Sep-15 22:32N 35°22' E 139°54'0 0.0
2014-Sep-15 21:23N 35°22' E 139°54'0 0.0
2014-Sep-15 20:32N 35°22' E 139°54'0 0.0
2014-Sep-15 19:32N 35°22' E 139°54'0 0.0
2014-Sep-15 18:29N 35°22' E 139°54'0 0.0
2014-Sep-15 17:32N 35°22' E 139°54'0 0.0
2014-Sep-15 16:32N 35°22' E 139°54'0 0.0
2014-Sep-15 15:32N 35°22' E 139°54'0 0.0
2014-Sep-15 14:32N 35°22' E 139°54'0 0.0
2014-Sep-15 13:32N 35°22' E 139°54'0 0.0
2014-Sep-15 12:32N 35°22' E 139°54'0 0.0
2014-Sep-15 11:32N 35°22' E 139°54'0 0.0
2014-Sep-15 10:32N 35°22' E 139°54'0 0.0
2014-Sep-15 09:29N 35°22' E 139°54'0 0.0
2014-Sep-15 08:32N 35°22' E 139°54'0 0.0
2014-Sep-15 07:32N 35°22' E 139°54'0 0.4
2014-Sep-15 06:33N 35°22' E 139°53'10 9.5
2014-Sep-15 05:33N 35°31' E 139°54'8 7.6
2014-Sep-15 04:32N 35°38' E 139°48'0 0.0
2014-Sep-15 03:29N 35°38' E 139°48'0 0.0
2014-Sep-15 02:29N 35°38' E 139°48'0 0.0
2014-Sep-15 01:32N 35°38' E 139°48'0 0.0
2014-Sep-15 00:23N 35°38' E 139°48'0 0.0
2014-Sep-14 23:25N 35°38' E 139°48'0 0.0
2014-Sep-14 22:29N 35°38' E 139°48'0 0.0
2014-Sep-14 21:32N 35°38' E 139°48'0 0.0
2014-Sep-14 20:31N 35°38' E 139°48'0 0.0
2014-Sep-14 19:29N 35°38' E 139°48'0 0.0
2014-Sep-14 18:31N 35°38' E 139°48'0 0.0
2014-Sep-14 17:32N 35°38' E 139°48'0 0.0
2014-Sep-14 16:28N 35°38' E 139°48'0 0.0
2014-Sep-14 15:32N 35°38' E 139°48'0 0.0
2014-Sep-14 14:31N 35°38' E 139°48'0 0.0
2014-Sep-14 13:28N 35°38' E 139°48'0 0.0
2014-Sep-14 12:28N 35°38' E 139°48'0 0.0
2014-Sep-14 11:26N 35°38' E 139°48'0 0.0
2014-Sep-14 10:31N 35°38' E 139°48'0 0.0
2014-Sep-14 09:31N 35°38' E 139°48'0 0.0
2014-Sep-14 08:31N 35°38' E 139°48'0 0.0
2014-Sep-14 07:31N 35°38' E 139°48'0 0.0
2014-Sep-14 06:31N 35°38' E 139°48'0 0.0
2014-Sep-14 05:31N 35°38' E 139°48'0 0.0
2014-Sep-14 04:28N 35°38' E 139°48'0 0.0
2014-Sep-14 03:33N 35°38' E 139°48'8 7.5
2014-Sep-14 02:33N 35°35' E 139°57'7 6.4
2014-Sep-14 01:31N 35°37' E 140°05'2 0.6
2014-Sep-13 21:30N 35°34' E 140°04'0 0.0
2014-Sep-13 20:33N 35°34' E 140°04'0 0.0
2014-Sep-13 19:33N 35°34' E 140°04'0 0.0
2014-Sep-13 18:30N 35°34' E 140°04'0 0.0
2014-Sep-13 17:27N 35°34' E 140°04'0 0.0
2014-Sep-13 16:33N 35°34' E 140°04'0 0.0
2014-Sep-13 15:33N 35°34' E 140°04'0 0.0
2014-Sep-13 14:33N 35°35' E 140°04'0 0.0
2014-Sep-13 13:33N 35°35' E 140°04'0 0.0
2014-Sep-13 12:33N 35°35' E 140°04'0 0.0
2014-Sep-13 11:30N 35°35' E 140°04'0 0.0
2014-Sep-13 10:33N 35°35' E 140°04'0 0.0
2014-Sep-13 09:30N 35°35' E 140°04'1 1.5
2014-Sep-13 08:33N 35°34' E 140°02'1010.6
2014-Sep-13 07:33N 35°30' E 139°50'9 9.0
2014-Sep-13 06:33N 35°28' E 139°40'0 0.4
2014-Sep-13 05:33N 35°29' E 139°39'0 0.0
2014-Sep-13 04:33N 35°29' E 139°39'0 0.0
2014-Sep-13 03:32N 35°29' E 139°39'0 0.0
2014-Sep-13 02:33N 35°29' E 139°39'0 0.0
2014-Sep-13 01:33N 35°29' E 139°39'6 6.1
2014-Sep-13 00:33N 35°23' E 139°43'1010.1
2014-Sep-12 23:33N 35°14' E 139°47'1110.9
2014-Sep-12 22:32N 35°03' E 139°45'15 7.7
2014-Sep-12 20:31N 34°55' E 140°01'1010.1
2014-Sep-12 19:32N 35°00' E 140°11'22 8.7
2014-Sep-12 17:04N 35°13' E 140°32'510.4
2014-Sep-12 16:33N 35°17' E 140°36'1010.0
2014-Sep-12 15:33N 35°26' E 140°42'2210.0
2014-Sep-12 13:22N 35°45' E 140°56'810.1
2014-Sep-12 12:33N 35°53' E 140°56'1110.5
2014-Sep-12 11:31N 36°04' E 140°57'1111.3
2014-Sep-12 10:30N 36°15' E 140°57'  
Track history (hours):
 
Tides and Currents Weather Stations Pressure Air Temp Water Temp Dewpoint Dewpoint Depression Visibility Wind Speed Wind Dir Waves Ship Positions

Syosyun

Last reported at 2014-Sep-19 05:33 UTC. Time now 2014-Sep-20 13:56 UTC.
Position N 34°36' E 134°55'.

Length 74 m; draft 4.2 m.

Type: Cargo ship. MMSI: 431000201.

Date/timePositionNaut miles runAvg speedWind from/ knotsBaromVisibWave heightAir tempDewpointWater temp
2014-Sep-19 05:33N 34°36' E 134°55'10 9.8
2014-Sep-19 04:32N 34°36' E 135°07'1010.7
2014-Sep-19 03:33N 34°38' E 135°19'7 6.8
2014-Sep-19 02:32N 34°39' E 135°28'0 0.0
2014-Sep-19 00:08N 34°39' E 135°28'0 0.0
2014-Sep-18 23:32N 34°39' E 135°28'0 0.0
2014-Sep-18 22:32N 34°39' E 135°28'0 0.0
2014-Sep-18 21:32N 34°39' E 135°28'0 0.0
2014-Sep-18 20:26N 34°39' E 135°28'0 0.0
2014-Sep-18 19:32N 34°39' E 135°28'0 0.0
2014-Sep-18 18:32N 34°39' E 135°28'0 0.0
2014-Sep-18 17:32N 34°39' E 135°28'0 0.0
2014-Sep-18 16:32N 34°39' E 135°28'0 0.0
2014-Sep-18 15:32N 34°39' E 135°28'0 0.0
2014-Sep-18 14:32N 34°39' E 135°28'0 0.0
2014-Sep-18 13:26N 34°39' E 135°28'0 0.0
2014-Sep-18 12:32N 34°39' E 135°28'0 0.0
2014-Sep-18 11:32N 34°39' E 135°28'0 0.0
2014-Sep-18 10:26N 34°39' E 135°28'0 0.0
2014-Sep-18 09:32N 34°39' E 135°28'0 0.0
2014-Sep-18 08:32N 34°39' E 135°28'0 0.0
2014-Sep-18 07:32N 34°39' E 135°28'0 0.0
2014-Sep-18 06:32N 34°39' E 135°28'4 4.4
2014-Sep-18 05:33N 34°38' E 135°23'7 4.7
2014-Sep-18 04:07N 34°31' E 135°24'0 0.0
2014-Sep-18 00:12N 34°31' E 135°24'4 6.7
2014-Sep-17 23:33N 34°31' E 135°19'1010.0
2014-Sep-17 22:33N 34°24' E 135°09'9 9.3
2014-Sep-17 21:32N 34°16' E 135°03'9 9.7
2014-Sep-17 20:33N 34°07' E 135°03'229 8.3
2014-Sep-16 17:06N 35°04' E 139°32'810.3
2014-Sep-16 16:20N 35°07' E 139°41'810.0
2014-Sep-16 15:34N 35°13' E 139°46'1010.4
2014-Sep-16 14:33N 35°23' E 139°42'8 7.8
2014-Sep-16 13:33N 35°22' E 139°52'2 1.6
2014-Sep-16 12:33N 35°22' E 139°54'0 0.0
2014-Sep-16 11:26N 35°22' E 139°54'0 0.0
2014-Sep-16 10:32N 35°22' E 139°54'0 0.0
2014-Sep-16 09:32N 35°22' E 139°54'0 0.0
2014-Sep-16 08:32N 35°22' E 139°54'0 0.0
2014-Sep-16 07:29N 35°22' E 139°54'0 0.1
2014-Sep-16 06:29N 35°22' E 139°54'0 0.0
2014-Sep-16 05:32N 35°22' E 139°54'0 0.0
2014-Sep-16 04:29N 35°22' E 139°54'0 0.0
2014-Sep-16 03:26N 35°22' E 139°54'0 0.0
2014-Sep-16 02:32N 35°22' E 139°54'0 0.0
2014-Sep-16 01:29N 35°22' E 139°54'0 0.0
2014-Sep-16 00:32N 35°22' E 139°54'0 0.0
2014-Sep-15 23:29N 35°22' E 139°54'0 0.0
2014-Sep-15 22:32N 35°22' E 139°54'0 0.0
2014-Sep-15 21:23N 35°22' E 139°54'0 0.0
2014-Sep-15 20:32N 35°22' E 139°54'0 0.0
2014-Sep-15 19:32N 35°22' E 139°54'0 0.0
2014-Sep-15 18:29N 35°22' E 139°54'0 0.0
2014-Sep-15 17:32N 35°22' E 139°54'0 0.0
2014-Sep-15 16:32N 35°22' E 139°54'0 0.0
2014-Sep-15 15:32N 35°22' E 139°54'0 0.0
2014-Sep-15 14:32N 35°22' E 139°54'0 0.0
2014-Sep-15 13:32N 35°22' E 139°54'0 0.0
2014-Sep-15 12:32N 35°22' E 139°54'0 0.0
2014-Sep-15 11:32N 35°22' E 139°54'0 0.0
2014-Sep-15 10:32N 35°22' E 139°54'0 0.0
2014-Sep-15 09:29N 35°22' E 139°54'0 0.0
2014-Sep-15 08:32N 35°22' E 139°54'0 0.0
2014-Sep-15 07:32N 35°22' E 139°54'0 0.4
2014-Sep-15 06:33N 35°22' E 139°53'10 9.5
2014-Sep-15 05:33N 35°31' E 139°54'8 7.6
2014-Sep-15 04:32N 35°38' E 139°48'0 0.0
2014-Sep-15 03:29N 35°38' E 139°48'0 0.0
2014-Sep-15 02:29N 35°38' E 139°48'0 0.0
2014-Sep-15 01:32N 35°38' E 139°48'0 0.0
2014-Sep-15 00:23N 35°38' E 139°48'0 0.0
2014-Sep-14 23:25N 35°38' E 139°48'0 0.0
2014-Sep-14 22:29N 35°38' E 139°48'0 0.0
2014-Sep-14 21:32N 35°38' E 139°48'0 0.0
2014-Sep-14 20:31N 35°38' E 139°48'0 0.0
2014-Sep-14 19:29N 35°38' E 139°48'0 0.0
2014-Sep-14 18:31N 35°38' E 139°48'0 0.0
2014-Sep-14 17:32N 35°38' E 139°48'0 0.0
2014-Sep-14 16:28N 35°38' E 139°48'0 0.0
2014-Sep-14 15:32N 35°38' E 139°48'0 0.0
2014-Sep-14 14:31N 35°38' E 139°48'0 0.0
2014-Sep-14 13:28N 35°38' E 139°48'0 0.0
2014-Sep-14 12:28N 35°38' E 139°48'0 0.0
2014-Sep-14 11:26N 35°38' E 139°48'0 0.0
2014-Sep-14 10:31N 35°38' E 139°48'0 0.0
2014-Sep-14 09:31N 35°38' E 139°48'0 0.0
2014-Sep-14 08:31N 35°38' E 139°48'0 0.0
2014-Sep-14 07:31N 35°38' E 139°48'0 0.0
2014-Sep-14 06:31N 35°38' E 139°48'0 0.0
2014-Sep-14 05:31N 35°38' E 139°48'0 0.0
2014-Sep-14 04:28N 35°38' E 139°48'0 0.0
2014-Sep-14 03:33N 35°38' E 139°48'8 7.5
2014-Sep-14 02:33N 35°35' E 139°57'7 6.4
2014-Sep-14 01:31N 35°37' E 140°05'2 0.6
2014-Sep-13 21:30N 35°34' E 140°04'0 0.0
2014-Sep-13 20:33N 35°34' E 140°04'0 0.0
2014-Sep-13 19:33N 35°34' E 140°04'0 0.0
2014-Sep-13 18:30N 35°34' E 140°04'0 0.0
2014-Sep-13 17:27N 35°34' E 140°04'0 0.0
2014-Sep-13 16:33N 35°34' E 140°04'0 0.0
2014-Sep-13 15:33N 35°34' E 140°04'0 0.0
2014-Sep-13 14:33N 35°35' E 140°04'0 0.0
2014-Sep-13 13:33N 35°35' E 140°04'0 0.0
2014-Sep-13 12:33N 35°35' E 140°04'0 0.0
2014-Sep-13 11:30N 35°35' E 140°04'0 0.0
2014-Sep-13 10:33N 35°35' E 140°04'0 0.0
2014-Sep-13 09:30N 35°35' E 140°04'1 1.5
2014-Sep-13 08:33N 35°34' E 140°02'1010.6
2014-Sep-13 07:33N 35°30' E 139°50'9 9.0
2014-Sep-13 06:33N 35°28' E 139°40'0 0.4
2014-Sep-13 05:33N 35°29' E 139°39'0 0.0
2014-Sep-13 04:33N 35°29' E 139°39'0 0.0
2014-Sep-13 03:32N 35°29' E 139°39'0 0.0
2014-Sep-13 02:33N 35°29' E 139°39'0 0.0
2014-Sep-13 01:33N 35°29' E 139°39'6 6.1
2014-Sep-13 00:33N 35°23' E 139°43'1010.1
2014-Sep-12 23:33N 35°14' E 139°47'1110.9
2014-Sep-12 22:32N 35°03' E 139°45'15 7.7
2014-Sep-12 20:31N 34°55' E 140°01'1010.1
2014-Sep-12 19:32N 35°00' E 140°11'22 8.7
2014-Sep-12 17:04N 35°13' E 140°32'510.4
2014-Sep-12 16:33N 35°17' E 140°36'1010.0
2014-Sep-12 15:33N 35°26' E 140°42'2210.0
2014-Sep-12 13:22N 35°45' E 140°56'810.1
2014-Sep-12 12:33N 35°53' E 140°56'1110.5
2014-Sep-12 11:31N 36°04' E 140°57'1111.3
2014-Sep-12 10:30N 36°15' E 140°57'  

Dump ship's entire track history